createdAt,value
2022-11-25T00:01:07.537Z,86.45
2022-11-25T00:03:36.611Z,86.56
2022-11-25T00:06:15.656Z,86.88
2022-11-25T00:08:44.647Z,86.67
2022-11-25T00:11:13.854Z,86.88
2022-11-25T00:13:42.841Z,86.89
2022-11-25T00:16:14.040Z,87.02
2022-11-25T00:18:45.573Z,87.21
2022-11-25T00:21:15.824Z,86.75
2022-11-25T00:23:43.622Z,86.91
2022-11-25T00:26:13.480Z,86.86
2022-11-25T00:28:42.988Z,86.91
2022-11-25T00:31:14.058Z,86.81
2022-11-25T00:33:42.512Z,86.97
2022-11-25T00:36:20.266Z,86.85
2022-11-25T00:38:48.714Z,86.67
2022-11-25T00:41:33.905Z,87.24
2022-11-25T00:44:19.384Z,86.74
2022-11-25T00:46:48.644Z,87.25
2022-11-25T00:49:17.123Z,86.76
2022-11-25T00:51:45.004Z,86.97
2022-11-25T00:54:13.059Z,86.52
2022-11-25T00:56:41.153Z,87.28
2022-11-25T00:59:09.876Z,86.98
2022-11-25T01:01:38.161Z,86.60
2022-11-25T01:04:08.508Z,87.36
2022-11-25T01:06:37.856Z,86.98
2022-11-25T01:09:06.958Z,87.04
2022-11-25T01:11:35.123Z,86.75
2022-11-25T01:14:03.081Z,86.80
2022-11-25T01:16:31.758Z,86.68
2022-11-25T01:19:00.852Z,86.97
2022-11-25T01:21:32.457Z,86.96
2022-11-25T01:24:01.657Z,87.15
2022-11-25T01:26:30.807Z,86.67
2022-11-25T01:29:01.369Z,87.19
2022-11-25T01:31:32.264Z,87.06
2022-11-25T01:34:02.535Z,86.89
2022-11-25T01:36:32.261Z,86.96
2022-11-25T01:39:01.611Z,87.05
2022-11-25T01:41:32.257Z,87.29
2022-11-25T01:44:19.398Z,86.99
2022-11-25T01:47:04.613Z,87.27
2022-11-25T01:49:37.742Z,87.03
2022-11-25T01:52:14.026Z,87.20
2022-11-25T01:54:48.002Z,87.21
2022-11-25T01:57:21.714Z,87.02
2022-11-25T01:59:53.475Z,86.80
2022-11-25T02:02:22.437Z,86.99
2022-11-25T02:04:50.649Z,87.11
2022-11-25T02:07:27.777Z,87.02
2022-11-25T02:09:57.228Z,87.04
2022-11-25T02:12:25.446Z,87.17
2022-11-25T02:14:56.137Z,86.93
2022-11-25T02:17:24.103Z,87.00
2022-11-25T02:20:00.360Z,87.30
2022-11-25T02:22:42.746Z,86.86
2022-11-25T02:25:16.222Z,87.03
2022-11-25T02:27:47.213Z,86.95
2022-11-25T02:30:15.439Z,87.15
2022-11-25T02:32:47.394Z,87.16
2022-11-25T02:35:27.488Z,87.20
2022-11-25T02:37:58.082Z,87.00
2022-11-25T02:40:28.997Z,87.21
2022-11-25T02:42:59.791Z,86.89
2022-11-25T02:45:34.457Z,87.14
2022-11-25T02:48:02.671Z,87.31
2022-11-25T02:50:30.431Z,87.10
2022-11-25T02:52:58.266Z,86.99
2022-11-25T02:55:27.674Z,86.98
2022-11-25T02:57:55.458Z,87.23
2022-11-25T03:00:23.651Z,87.11
2022-11-25T03:02:54.520Z,87.11
2022-11-25T03:05:22.993Z,87.14
2022-11-25T03:07:51.239Z,87.15
2022-11-25T03:10:19.571Z,87.12
2022-11-25T03:12:49.132Z,87.34
2022-11-25T03:15:17.528Z,87.23
2022-11-25T03:17:45.568Z,87.01
2022-11-25T03:20:15.200Z,87.31
2022-11-25T03:22:43.997Z,87.22
2022-11-25T03:25:12.643Z,87.21
2022-11-25T03:27:41.629Z,86.98
2022-11-25T03:30:14.026Z,87.17
2022-11-25T03:32:42.992Z,87.32
2022-11-25T03:35:11.960Z,87.19
2022-11-25T03:37:40.432Z,87.09
2022-11-25T03:40:10.258Z,87.43
2022-11-25T03:42:38.110Z,87.42
2022-11-25T03:45:07.535Z,87.26
2022-11-25T03:47:37.058Z,86.90
2022-11-25T03:50:06.090Z,87.09
2022-11-25T03:52:34.022Z,87.25
2022-11-25T03:55:01.985Z,87.04
2022-11-25T03:57:29.777Z,87.59
2022-11-25T03:59:57.600Z,87.53
2022-11-25T04:02:25.652Z,86.95
2022-11-25T04:04:54.789Z,87.36
2022-11-25T04:07:22.671Z,87.41
2022-11-25T04:09:50.655Z,87.06
2022-11-25T04:12:36.070Z,87.21
2022-11-25T04:15:04.105Z,86.84
2022-11-25T04:17:31.995Z,86.92
2022-11-25T04:20:01.532Z,87.16
2022-11-25T04:22:29.388Z,87.67
2022-11-25T04:24:57.258Z,87.09
2022-11-25T04:27:25.094Z,87.16
2022-11-25T04:29:52.961Z,87.41
2022-11-25T04:32:20.776Z,87.44
2022-11-25T04:34:48.626Z,87.65
2022-11-25T04:37:17.817Z,87.54
2022-11-25T04:39:45.778Z,87.30
2022-11-25T04:42:31.200Z,86.92
2022-11-25T04:45:21.437Z,87.28
2022-11-25T04:47:47.130Z,87.27
2022-11-25T04:50:18.715Z,87.10
2022-11-25T04:52:48.058Z,87.45
2022-11-25T04:55:16.212Z,87.26
2022-11-25T04:57:44.049Z,86.94
2022-11-25T05:00:13.278Z,86.96
2022-11-25T05:02:41.801Z,87.16
2022-11-25T05:05:10.405Z,87.35
2022-11-25T05:07:38.714Z,87.27
2022-11-25T05:10:09.573Z,87.47
2022-11-25T05:12:37.859Z,87.20
2022-11-25T05:15:06.516Z,87.58
2022-11-25T05:17:34.704Z,87.74
2022-11-25T05:20:03.191Z,87.32
2022-11-25T05:22:33.503Z,87.66
2022-11-25T05:25:01.647Z,87.20
2022-11-25T05:27:30.877Z,87.49
2022-11-25T05:29:58.710Z,87.38
2022-11-25T05:32:26.542Z,87.28
2022-11-25T05:34:54.376Z,87.32
2022-11-25T05:37:24.486Z,87.56
2022-11-25T05:39:52.963Z,87.48
2022-11-25T05:42:21.021Z,87.52
2022-11-25T05:44:50.322Z,87.42
2022-11-25T05:47:18.166Z,87.50
2022-11-25T05:49:46.095Z,87.21
2022-11-25T05:52:13.898Z,87.39
2022-11-25T05:54:41.678Z,87.45
2022-11-25T05:57:09.697Z,87.84
2022-11-25T05:59:37.620Z,87.41
2022-11-25T06:02:07.108Z,87.58
2022-11-25T06:04:35.463Z,87.55
2022-11-25T06:07:03.478Z,87.48
2022-11-25T06:09:31.342Z,87.57
2022-11-25T06:11:59.115Z,87.28
2022-11-25T06:14:26.919Z,87.68
2022-11-25T06:16:54.752Z,87.86
2022-11-25T06:19:23.962Z,87.21
2022-11-25T06:21:51.758Z,87.49
2022-11-25T06:24:19.691Z,87.29
2022-11-25T06:26:47.496Z,87.26
2022-11-25T06:29:15.260Z,87.25
2022-11-25T06:31:43.235Z,87.34
2022-11-25T06:34:11.179Z,87.35
2022-11-25T06:36:40.383Z,87.51
2022-11-25T06:39:08.734Z,87.66
2022-11-25T06:41:36.693Z,87.72
2022-11-25T06:44:04.650Z,87.38
2022-11-25T06:46:32.615Z,87.33
2022-11-25T06:49:01.631Z,87.15
2022-11-25T06:51:29.412Z,87.66
2022-11-25T06:53:59.003Z,87.48
2022-11-25T06:56:29.033Z,87.16
2022-11-25T06:58:57.053Z,87.31
2022-11-25T07:01:26.443Z,87.32
2022-11-25T07:03:57.057Z,87.25
2022-11-25T07:06:24.956Z,87.65
2022-11-25T07:08:53.060Z,87.42
2022-11-25T07:11:24.407Z,87.38
2022-11-25T07:13:53.436Z,87.06
2022-11-25T07:16:21.296Z,87.25
2022-11-25T07:18:49.237Z,87.61
2022-11-25T07:21:20.164Z,87.62
2022-11-25T07:23:48.773Z,87.55
2022-11-25T07:26:19.595Z,87.25
2022-11-25T07:28:49.789Z,87.35
2022-11-25T07:31:24.732Z,87.48
2022-11-25T07:33:58.061Z,87.46
2022-11-25T07:36:26.848Z,87.16
2022-11-25T07:38:54.851Z,87.43
2022-11-25T07:41:24.762Z,87.81
2022-11-25T07:43:55.483Z,87.72
2022-11-25T07:46:27.392Z,87.37
2022-11-25T07:48:56.934Z,87.53
2022-11-25T07:51:27.550Z,87.47
2022-11-25T07:53:57.281Z,87.72
2022-11-25T07:56:25.453Z,87.45
2022-11-25T07:58:55.064Z,87.30
2022-11-25T08:01:23.308Z,87.66
2022-11-25T08:03:52.262Z,87.67
2022-11-25T08:06:22.070Z,87.76
2022-11-25T08:08:52.825Z,87.60
2022-11-25T08:11:22.814Z,87.78
2022-11-25T08:13:51.071Z,87.60
2022-11-25T08:16:22.721Z,87.51
2022-11-25T08:18:51.544Z,87.61
2022-11-25T08:21:20.288Z,87.25
2022-11-25T08:23:48.989Z,87.69
2022-11-25T08:26:19.408Z,87.72
2022-11-25T08:28:48.095Z,87.78
2022-11-25T08:31:18.473Z,87.49
2022-11-25T08:33:48.292Z,87.63
2022-11-25T08:36:17.368Z,87.49
2022-11-25T08:38:49.162Z,87.78
2022-11-25T08:41:20.704Z,87.54
2022-11-25T08:43:48.996Z,87.78
2022-11-25T08:46:19.977Z,87.64
2022-11-25T08:48:49.177Z,87.55
2022-11-25T08:51:19.826Z,87.86
2022-11-25T08:53:48.586Z,87.83
2022-11-25T08:56:17.177Z,87.76
2022-11-25T08:58:50.234Z,87.71
2022-11-25T09:01:19.845Z,87.79
2022-11-25T09:03:51.504Z,87.61
2022-11-25T09:06:20.013Z,87.70
2022-11-25T09:08:49.128Z,87.67
2022-11-25T09:11:17.406Z,87.65
2022-11-25T09:13:45.487Z,87.63
2022-11-25T09:16:13.537Z,87.56
2022-11-25T09:18:41.326Z,87.63
2022-11-25T09:21:12.915Z,87.69
2022-11-25T09:23:41.432Z,87.67
2022-11-25T09:26:13.302Z,87.62
2022-11-25T09:28:41.176Z,87.66
2022-11-25T09:31:10.036Z,87.74
2022-11-25T09:33:38.663Z,87.82
2022-11-25T09:36:07.052Z,87.63
2022-11-25T09:38:41.690Z,87.56
2022-11-25T09:41:39.956Z,87.57
2022-11-25T09:44:35.722Z,87.66
2022-11-25T09:47:10.767Z,87.66
2022-11-25T09:49:56.730Z,87.71
2022-11-25T09:52:30.865Z,87.52
2022-11-25T09:55:04.814Z,87.61
2022-11-25T09:57:48.339Z,87.73
2022-11-25T10:00:18.972Z,87.54
2022-11-25T10:02:55.363Z,87.69
2022-11-25T10:05:26.702Z,87.63
2022-11-25T10:07:59.333Z,87.83
2022-11-25T10:10:32.182Z,87.54
2022-11-25T10:13:00.963Z,87.66
2022-11-25T10:15:34.475Z,87.54
2022-11-25T10:18:07.254Z,87.45
2022-11-25T10:20:37.896Z,87.58
2022-11-25T10:23:11.783Z,87.49
2022-11-25T10:25:46.840Z,87.48
2022-11-25T10:28:20.295Z,87.87
2022-11-25T10:31:00.179Z,87.89
2022-11-25T10:33:31.818Z,87.77
2022-11-25T10:36:02.474Z,87.64
2022-11-25T10:38:37.086Z,87.28
2022-11-25T10:41:06.788Z,87.79
2022-11-25T10:43:35.377Z,87.62
2022-11-25T10:46:12.580Z,87.30
2022-11-25T10:48:55.296Z,87.94
2022-11-25T10:51:37.040Z,87.62
2022-11-25T10:54:15.040Z,88.03
2022-11-25T10:56:51.113Z,87.45
2022-11-25T10:59:30.880Z,87.37
2022-11-25T11:02:22.501Z,87.79
2022-11-25T11:04:55.543Z,87.47
2022-11-25T11:07:24.655Z,87.38
2022-11-25T11:09:53.707Z,87.81
2022-11-25T11:12:25.611Z,87.81
2022-11-25T11:14:54.240Z,87.51
2022-11-25T11:17:36.668Z,87.68
2022-11-25T11:20:22.795Z,87.35
2022-11-25T11:22:57.571Z,87.57
2022-11-25T11:25:31.914Z,87.32
2022-11-25T11:28:01.541Z,87.96
2022-11-25T11:30:30.945Z,87.69
2022-11-25T11:33:05.110Z,87.06
2022-11-25T11:35:48.754Z,87.43
2022-11-25T11:38:26.527Z,87.57
2022-11-25T11:41:01.498Z,87.57
2022-11-25T11:43:43.550Z,87.62
2022-11-25T11:46:27.581Z,87.61
2022-11-25T11:49:06.766Z,87.40
2022-11-25T11:51:41.796Z,87.36
2022-11-25T11:54:14.904Z,87.48
2022-11-25T11:56:51.994Z,87.77
2022-11-25T11:59:37.791Z,87.38
2022-11-25T12:02:17.767Z,87.18
2022-11-25T12:04:52.335Z,87.63
2022-11-25T12:07:28.195Z,87.22
2022-11-25T12:10:00.461Z,87.36
2022-11-25T12:12:34.962Z,87.03
2022-11-25T12:15:13.689Z,87.41
2022-11-25T12:17:47.845Z,87.50
2022-11-25T12:20:21.474Z,87.11
2022-11-25T12:22:55.106Z,87.23
2022-11-25T12:25:25.690Z,87.43
2022-11-25T12:28:00.022Z,87.21
2022-11-25T12:30:35.979Z,87.35
2022-11-25T12:33:11.025Z,87.02
2022-11-25T12:35:51.035Z,87.24
2022-11-25T12:38:27.003Z,87.20
2022-11-25T12:41:02.613Z,87.39
2022-11-25T12:43:41.902Z,87.34
2022-11-25T12:46:20.214Z,87.29
2022-11-25T12:48:48.093Z,87.09
2022-11-25T12:51:24.731Z,87.25
2022-11-25T12:54:07.698Z,86.96
2022-11-25T12:56:53.956Z,87.16
2022-11-25T12:59:48.449Z,87.16
2022-11-25T13:02:36.954Z,87.05
2022-11-25T13:08:31.067Z,86.91
2022-11-25T13:10:55.717Z,87.17
2022-11-25T13:11:12.618Z,87.28
2022-11-25T13:13:54.049Z,87.28
2022-11-25T13:16:23.850Z,86.94
2022-11-25T13:18:54.640Z,86.99
2022-11-25T13:21:24.251Z,87.13
2022-11-25T13:23:56.133Z,86.78
2022-11-25T13:26:51.100Z,87.02
2022-11-25T13:30:01.822Z,87.07
2022-11-25T13:32:32.904Z,87.07
2022-11-25T13:35:40.247Z,87.11
2022-11-25T13:38:37.716Z,87.00
2022-11-25T13:41:23.621Z,87.03
2022-11-25T13:44:02.041Z,86.79
2022-11-25T13:46:39.728Z,87.12
2022-11-25T13:49:26.360Z,87.04
2022-11-25T13:51:57.040Z,87.06
2022-11-25T13:54:31.835Z,87.04
2022-11-25T13:57:15.708Z,86.74
2022-11-25T13:59:52.616Z,86.86
2022-11-25T14:02:45.413Z,86.73
2022-11-25T14:05:54.993Z,86.88
2022-11-25T14:08:31.839Z,86.89
2022-11-25T14:11:18.487Z,86.96
2022-11-25T14:14:05.557Z,86.66
2022-11-25T14:16:46.599Z,86.63
2022-11-25T14:19:54.723Z,86.88
2022-11-25T14:22:39.818Z,86.53
2022-11-25T14:25:17.578Z,86.73
2022-11-25T14:27:48.320Z,86.76
2022-11-25T14:30:18.071Z,86.71
2022-11-25T14:32:53.433Z,86.95
2022-11-25T14:35:25.223Z,86.77
2022-11-25T14:38:01.270Z,86.46
2022-11-25T14:40:36.200Z,86.87
2022-11-25T14:43:06.879Z,86.64
2022-11-25T14:45:36.270Z,87.04
2022-11-25T14:48:16.772Z,86.75
2022-11-25T14:50:56.435Z,86.85
2022-11-25T14:53:26.563Z,86.69
2022-11-25T14:55:55.039Z,86.59
2022-11-25T14:58:23.474Z,86.42
2022-11-25T15:00:52.806Z,86.75
2022-11-25T15:03:21.555Z,86.48
2022-11-25T15:05:57.174Z,86.67
2022-11-25T15:08:27.434Z,86.85
2022-11-25T15:10:58.422Z,86.97
2022-11-25T15:13:33.350Z,86.42
2022-11-25T15:16:07.981Z,86.82
2022-11-25T15:18:36.984Z,86.75
2022-11-25T15:21:05.626Z,86.61
2022-11-25T15:23:38.909Z,86.76
2022-11-25T15:26:18.911Z,86.83
2022-11-25T15:28:48.270Z,86.85
2022-11-25T15:31:21.014Z,86.74
2022-11-25T15:33:54.894Z,86.89
2022-11-25T15:36:24.247Z,86.75
2022-11-25T15:38:53.759Z,86.65
2022-11-25T15:41:32.056Z,86.81
2022-11-25T15:44:02.568Z,86.88
2022-11-25T15:46:33.690Z,86.62
2022-11-25T15:49:04.340Z,86.71
2022-11-25T15:51:42.778Z,86.90
2022-11-25T15:54:20.083Z,86.64
2022-11-25T15:56:50.413Z,86.70
2022-11-25T15:59:42.158Z,86.87
2022-11-25T16:02:53.599Z,86.80
2022-11-25T16:05:39.316Z,86.69
2022-11-25T16:08:26.798Z,86.67
2022-11-25T16:10:59.300Z,86.68
2022-11-25T16:13:37.159Z,86.84
2022-11-25T16:16:21.088Z,86.80
2022-11-25T16:19:18.423Z,86.85
2022-11-25T16:22:01.266Z,86.87
2022-11-25T16:24:42.563Z,86.67
2022-11-25T16:27:20.970Z,86.92
2022-11-25T16:29:51.632Z,86.84
2022-11-25T16:32:21.561Z,87.01
2022-11-25T16:34:50.043Z,86.67
2022-11-25T16:37:17.891Z,86.63
2022-11-25T16:39:45.844Z,86.95
2022-11-25T16:42:22.692Z,86.92
2022-11-25T16:44:52.655Z,86.91
2022-11-25T16:47:21.860Z,86.64
2022-11-25T16:49:50.164Z,87.08
2022-11-25T16:52:18.110Z,86.78
2022-11-25T16:54:47.403Z,86.66
2022-11-25T16:57:20.051Z,86.50
2022-11-25T16:59:57.292Z,87.10
2022-11-25T17:02:27.061Z,86.87
2022-11-25T17:04:54.877Z,86.72
2022-11-25T17:07:38.598Z,86.73
2022-11-25T17:10:08.801Z,86.72
2022-11-25T17:12:38.593Z,86.85
2022-11-25T17:15:15.205Z,86.73
2022-11-25T17:17:45.866Z,87.12
2022-11-25T17:20:17.145Z,86.83
2022-11-25T17:22:45.072Z,86.55
2022-11-25T17:25:13.622Z,86.69
2022-11-25T17:27:42.694Z,86.65
2022-11-25T17:30:18.127Z,86.92
2022-11-25T17:32:46.820Z,86.80
2022-11-25T17:35:19.754Z,87.07
2022-11-25T17:37:48.357Z,86.87
2022-11-25T17:40:16.912Z,87.36
2022-11-25T17:42:48.403Z,87.10
2022-11-25T17:45:20.356Z,86.72
2022-11-25T17:47:48.619Z,87.06
2022-11-25T17:50:19.186Z,86.80
2022-11-25T17:52:47.005Z,86.98
2022-11-25T17:55:19.432Z,86.84
2022-11-25T17:57:47.779Z,87.16
2022-11-25T18:00:19.720Z,87.02
2022-11-25T18:02:48.107Z,87.08
2022-11-25T18:05:20.561Z,87.06
2022-11-25T18:07:48.788Z,86.77
2022-11-25T18:10:18.559Z,87.23
2022-11-25T18:12:48.337Z,87.00
2022-11-25T18:15:20.144Z,87.13
2022-11-25T18:17:49.987Z,86.99
2022-11-25T18:20:20.214Z,86.84
2022-11-25T18:22:49.263Z,87.13
2022-11-25T18:25:18.924Z,86.79
2022-11-25T18:27:48.703Z,87.24
2022-11-25T18:30:20.401Z,86.96
2022-11-25T18:32:48.547Z,87.18
2022-11-25T18:35:18.706Z,86.88
2022-11-25T18:37:46.792Z,87.11
2022-11-25T18:40:15.874Z,87.15
2022-11-25T18:42:46.161Z,87.04
2022-11-25T18:45:21.515Z,86.71
2022-11-25T18:47:49.389Z,86.81
2022-11-25T18:50:19.727Z,86.99
2022-11-25T18:52:47.955Z,86.97
2022-11-25T18:55:18.078Z,87.14
2022-11-25T18:57:48.184Z,86.99
2022-11-25T19:00:36.242Z,87.00
2022-11-25T19:03:05.019Z,86.77
2022-11-25T19:05:34.315Z,87.35
2022-11-25T19:08:03.502Z,87.14
2022-11-25T19:10:35.115Z,86.79
2022-11-25T19:13:06.422Z,87.26
2022-11-25T19:15:37.525Z,87.08
2022-11-25T19:18:07.882Z,87.22
2022-11-25T19:20:35.784Z,87.00
2022-11-25T19:23:17.087Z,86.90
2022-11-25T19:25:45.638Z,87.21
2022-11-25T19:28:16.193Z,87.15
2022-11-25T19:30:47.531Z,87.00
2022-11-25T19:33:23.468Z,87.18
2022-11-25T19:35:51.588Z,86.83
2022-11-25T19:38:25.210Z,87.11
2022-11-25T19:40:53.483Z,87.16
2022-11-25T19:43:22.788Z,87.20
2022-11-25T19:45:52.045Z,87.05
2022-11-25T19:48:21.886Z,87.35
2022-11-25T19:50:52.007Z,86.94
2022-11-25T19:53:23.031Z,87.23
2022-11-25T19:55:50.868Z,87.50
2022-11-25T19:58:18.761Z,87.02
2022-11-25T20:00:48.640Z,87.24
2022-11-25T20:03:22.101Z,86.99
2022-11-25T20:05:51.558Z,86.99
2022-11-25T20:08:20.823Z,87.23
2022-11-25T20:10:48.847Z,86.91
2022-11-25T20:13:16.759Z,87.15
2022-11-25T20:15:46.104Z,87.35
2022-11-25T20:18:18.336Z,86.93
2022-11-25T20:20:50.074Z,87.05
2022-11-25T20:23:26.188Z,87.21
2022-11-25T20:25:54.482Z,87.44
2022-11-25T20:28:25.116Z,87.14
2022-11-25T20:30:54.079Z,87.28
2022-11-25T20:33:24.949Z,87.29
2022-11-25T20:36:00.754Z,87.41
2022-11-25T20:38:31.109Z,87.20
2022-11-25T20:41:00.914Z,86.92
2022-11-25T20:43:30.800Z,87.41
2022-11-25T20:46:00.478Z,87.43
2022-11-25T20:48:29.741Z,87.35
2022-11-25T20:51:01.401Z,87.35
2022-11-25T20:53:32.349Z,87.30
2022-11-25T20:56:00.871Z,87.37
2022-11-25T20:58:30.727Z,87.47
2022-11-25T21:00:59.657Z,87.21
2022-11-25T21:03:27.719Z,87.28
2022-11-25T21:05:58.099Z,87.12
2022-11-25T21:08:31.573Z,87.53
2022-11-25T21:11:00.191Z,87.46
2022-11-25T21:13:30.030Z,87.27
2022-11-25T21:15:59.265Z,87.47
2022-11-25T21:18:27.143Z,87.37
2022-11-25T21:20:58.196Z,87.28
2022-11-25T21:23:31.399Z,87.06
2022-11-25T21:26:03.938Z,87.45
2022-11-25T21:28:33.887Z,87.69
2022-11-25T21:31:04.841Z,87.37
2022-11-25T21:33:36.478Z,87.59
2022-11-25T21:36:04.949Z,87.25
2022-11-25T21:38:34.067Z,87.47
2022-11-25T21:41:01.925Z,87.60
2022-11-25T21:43:33.488Z,87.38
2022-11-25T21:46:04.434Z,87.57
2022-11-25T21:48:32.790Z,87.80
2022-11-25T21:51:00.706Z,87.50
2022-11-25T21:53:30.997Z,87.40
2022-11-25T21:56:04.288Z,87.43
2022-11-25T21:58:32.830Z,87.33
2022-11-25T22:01:03.116Z,87.41
2022-11-25T22:03:32.766Z,87.36
2022-11-25T22:06:00.831Z,87.44
2022-11-25T22:08:31.247Z,87.40
2022-11-25T22:10:59.221Z,87.48
2022-11-25T22:13:35.143Z,87.50
2022-11-25T22:16:03.241Z,87.57
2022-11-25T22:18:33.809Z,87.77
2022-11-25T22:21:02.541Z,87.46
2022-11-25T22:23:30.902Z,87.64
2022-11-25T22:25:59.252Z,87.89
2022-11-25T22:28:30.822Z,87.36
2022-11-25T22:31:02.098Z,87.80
2022-11-25T22:33:32.173Z,87.72
2022-11-25T22:36:00.645Z,87.62
2022-11-25T22:38:30.049Z,87.63
2022-11-25T22:41:00.625Z,87.58
2022-11-25T22:43:33.735Z,87.43
2022-11-25T22:46:02.141Z,87.64
2022-11-25T22:48:33.117Z,87.36
2022-11-25T22:51:01.000Z,87.67
2022-11-25T22:53:29.235Z,87.66
2022-11-25T22:55:58.239Z,87.67
2022-11-25T22:58:27.676Z,87.77
2022-11-25T23:00:57.597Z,87.49
2022-11-25T23:03:29.283Z,87.52
2022-11-25T23:05:57.829Z,87.62
2022-11-25T23:08:27.766Z,87.20
2022-11-25T23:10:56.332Z,87.57
2022-11-25T23:13:25.009Z,87.70
2022-11-25T23:15:54.493Z,87.46
2022-11-25T23:18:27.334Z,87.52
2022-11-25T23:20:55.411Z,87.82
2022-11-25T23:23:27.001Z,87.68
2022-11-25T23:25:55.299Z,87.60
2022-11-25T23:28:23.549Z,87.71
2022-11-25T23:30:53.584Z,87.71
2022-11-25T23:33:31.410Z,87.60
2022-11-25T23:36:04.774Z,88.02
2022-11-25T23:38:39.485Z,87.62
2022-11-25T23:41:07.366Z,87.65
2022-11-25T23:43:35.466Z,87.60
2022-11-25T23:46:03.564Z,87.90
2022-11-25T23:48:33.197Z,87.78
2022-11-25T23:51:01.526Z,87.51
2022-11-25T23:53:32.526Z,87.62
2022-11-25T23:56:00.851Z,88.02
2022-11-25T23:58:29.051Z,87.51
